Terminal Aerodrome Forecast
Issued by NWS

Home | Current Version | Previous Version | Text Only | Print | Product List | Glossary On
Versions: 1 2 3 4 5 6 7 8 9 10 11 12 13 14 15 16 17 18 19 20 21 22
000
FTUS42 KTAE 311451 AAB
TAFDHN
TAF AMD
KDHN 311451Z 3115/0112 04003KT 1SM BR OVC002
     FM311600 06005KT P6SM SCT020
     FM311700 35008KT P6SM VCSH BKN040
     FM010300 15003KT P6SM SCT040 SCT250=

USA.gov is the U.S. government's official web portal to all federal, state and local government web resources and services.